sensor_id;sensor_type;location;lat;lon;timestamp;P1;durP1;ratioP1;P2;durP2;ratioP2
45548;SDS011;31270;48.328;10.096;2023-04-21T00:01:26;52.27;;;29.43;;
45548;SDS011;31270;48.328;10.096;2023-04-21T00:03:54;46.90;;;27.73;;
45548;SDS011;31270;48.328;10.096;2023-04-21T00:06:20;43.80;;;26.10;;
45548;SDS011;31270;48.328;10.096;2023-04-21T00:08:51;42.33;;;25.40;;
45548;SDS011;31270;48.328;10.096;2023-04-21T00:11:17;44.27;;;24.83;;
45548;SDS011;31270;48.328;10.096;2023-04-21T00:13:43;49.33;;;24.63;;
45548;SDS011;31270;48.328;10.096;2023-04-21T00:16:10;64.20;;;26.17;;
45548;SDS011;31270;48.328;10.096;2023-04-21T00:18:36;57.73;;;26.40;;
45548;SDS011;31270;48.328;10.096;2023-04-21T00:21:02;52.53;;;26.63;;
45548;SDS011;31270;48.328;10.096;2023-04-21T00:23:28;45.87;;;26.37;;
45548;SDS011;31270;48.328;10.096;2023-04-21T00:25:54;49.37;;;26.37;;
45548;SDS011;31270;48.328;10.096;2023-04-21T00:28:20;66.47;;;25.23;;
45548;SDS011;31270;48.328;10.096;2023-04-21T00:30:46;44.80;;;24.40;;
45548;SDS011;31270;48.328;10.096;2023-04-21T00:33:11;141.97;;;25.53;;
45548;SDS011;31270;48.328;10.096;2023-04-21T00:35:37;68.03;;;24.17;;
45548;SDS011;31270;48.328;10.096;2023-04-21T00:38:02;44.93;;;22.17;;
45548;SDS011;31270;48.328;10.096;2023-04-21T00:40:29;81.10;;;23.13;;
45548;SDS011;31270;48.328;10.096;2023-04-21T00:42:55;45.30;;;21.57;;
45548;SDS011;31270;48.328;10.096;2023-04-21T00:45:21;56.53;;;23.30;;
45548;SDS011;31270;48.328;10.096;2023-04-21T00:47:46;59.37;;;23.90;;
45548;SDS011;31270;48.328;10.096;2023-04-21T00:50:13;148.20;;;25.37;;
45548;SDS011;31270;48.328;10.096;2023-04-21T00:52:39;47.87;;;23.07;;
45548;SDS011;31270;48.328;10.096;2023-04-21T00:55:07;54.77;;;23.83;;
45548;SDS011;31270;48.328;10.096;2023-04-21T00:57:34;44.63;;;23.53;;
45548;SDS011;31270;48.328;10.096;2023-04-21T01:00:02;40.20;;;23.23;;
45548;SDS011;31270;48.328;10.096;2023-04-21T01:02:30;43.77;;;23.43;;
45548;SDS011;31270;48.328;10.096;2023-04-21T01:04:56;47.87;;;23.67;;
45548;SDS011;31270;48.328;10.096;2023-04-21T01:07:23;40.73;;;24.30;;
45548;SDS011;31270;48.328;10.096;2023-04-21T01:09:49;43.70;;;24.37;;
45548;SDS011;31270;48.328;10.096;2023-04-21T01:12:15;43.00;;;24.90;;
45548;SDS011;31270;48.328;10.096;2023-04-21T01:14:41;43.50;;;24.90;;
45548;SDS011;31270;48.328;10.096;2023-04-21T01:17:07;42.23;;;23.43;;
45548;SDS011;31270;48.328;10.096;2023-04-21T01:19:37;50.73;;;24.20;;
45548;SDS011;31270;48.328;10.096;2023-04-21T01:22:09;86.93;;;23.83;;
45548;SDS011;31270;48.328;10.096;2023-04-21T01:24:44;131.63;;;24.87;;
45548;SDS011;31270;48.328;10.096;2023-04-21T01:27:12;292.97;;;25.33;;
45548;SDS011;31270;48.328;10.096;2023-04-21T01:29:40;208.30;;;24.87;;
45548;SDS011;31270;48.328;10.096;2023-04-21T01:32:07;236.33;;;25.07;;
45548;SDS011;31270;48.328;10.096;2023-04-21T01:34:36;171.10;;;23.57;;
45548;SDS011;31270;48.328;10.096;2023-04-21T01:37:05;228.60;;;24.60;;
45548;SDS011;31270;48.328;10.096;2023-04-21T01:39:39;71.90;;;22.00;;
45548;SDS011;31270;48.328;10.096;2023-04-21T01:42:06;66.43;;;22.27;;
45548;SDS011;31270;48.328;10.096;2023-04-21T01:44:33;132.93;;;24.40;;
45548;SDS011;31270;48.328;10.096;2023-04-21T01:46:59;212.63;;;24.07;;
45548;SDS011;31270;48.328;10.096;2023-04-21T01:49:25;270.03;;;26.97;;
45548;SDS011;31270;48.328;10.096;2023-04-21T01:51:51;242.13;;;24.00;;
45548;SDS011;31270;48.328;10.096;2023-04-21T01:54:17;355.63;;;25.50;;
45548;SDS011;31270;48.328;10.096;2023-04-21T01:56:43;428.47;;;28.27;;
45548;SDS011;31270;48.328;10.096;2023-04-21T01:59:08;550.20;;;32.50;;
45548;SDS011;31270;48.328;10.096;2023-04-21T02:01:34;530.67;;;30.90;;
45548;SDS011;31270;48.328;10.096;2023-04-21T02:04:01;392.77;;;24.90;;
45548;SDS011;31270;48.328;10.096;2023-04-21T02:06:28;232.60;;;22.57;;
45548;SDS011;31270;48.328;10.096;2023-04-21T02:08:55;237.57;;;22.10;;
45548;SDS011;31270;48.328;10.096;2023-04-21T02:11:23;212.93;;;20.87;;
45548;SDS011;31270;48.328;10.096;2023-04-21T02:13:51;178.47;;;21.47;;
45548;SDS011;31270;48.328;10.096;2023-04-21T02:16:17;178.53;;;20.90;;
45548;SDS011;31270;48.328;10.096;2023-04-21T02:18:45;166.20;;;23.13;;
45548;SDS011;31270;48.328;10.096;2023-04-21T02:21:13;90.13;;;20.80;;
45548;SDS011;31270;48.328;10.096;2023-04-21T02:23:39;182.90;;;22.33;;
45548;SDS011;31270;48.328;10.096;2023-04-21T02:26:05;245.57;;;22.00;;
45548;SDS011;31270;48.328;10.096;2023-04-21T02:28:31;167.73;;;21.50;;
45548;SDS011;31270;48.328;10.096;2023-04-21T02:30:57;208.20;;;20.97;;
45548;SDS011;31270;48.328;10.096;2023-04-21T02:33:24;158.97;;;21.40;;
45548;SDS011;31270;48.328;10.096;2023-04-21T02:35:50;168.33;;;20.03;;
45548;SDS011;31270;48.328;10.096;2023-04-21T02:38:15;176.80;;;21.20;;
45548;SDS011;31270;48.328;10.096;2023-04-21T02:40:51;175.83;;;21.33;;
45548;SDS011;31270;48.328;10.096;2023-04-21T02:43:17;172.27;;;21.30;;
45548;SDS011;31270;48.328;10.096;2023-04-21T02:45:53;150.33;;;19.57;;
45548;SDS011;31270;48.328;10.096;2023-04-21T02:48:19;173.43;;;20.73;;
45548;SDS011;31270;48.328;10.096;2023-04-21T02:50:50;127.57;;;19.93;;
45548;SDS011;31270;48.328;10.096;2023-04-21T02:53:18;98.20;;;19.53;;
45548;SDS011;31270;48.328;10.096;2023-04-21T02:55:44;128.43;;;20.20;;
45548;SDS011;31270;48.328;10.096;2023-04-21T02:58:10;98.33;;;19.97;;
45548;SDS011;31270;48.328;10.096;2023-04-21T03:00:36;79.37;;;19.40;;
45548;SDS011;31270;48.328;10.096;2023-04-21T03:03:09;115.57;;;19.50;;
45548;SDS011;31270;48.328;10.096;2023-04-21T03:05:36;113.13;;;20.70;;
45548;SDS011;31270;48.328;10.096;2023-04-21T03:08:11;127.83;;;19.80;;
45548;SDS011;31270;48.328;10.096;2023-04-21T03:10:44;105.10;;;20.30;;
45548;SDS011;31270;48.328;10.096;2023-04-21T03:13:14;112.23;;;19.40;;
45548;SDS011;31270;48.328;10.096;2023-04-21T03:15:43;95.70;;;19.57;;
45548;SDS011;31270;48.328;10.096;2023-04-21T03:18:09;99.57;;;20.23;;
45548;SDS011;31270;48.328;10.096;2023-04-21T03:20:40;110.03;;;21.13;;
45548;SDS011;31270;48.328;10.096;2023-04-21T03:23:06;121.57;;;21.17;;
45548;SDS011;31270;48.328;10.096;2023-04-21T03:25:32;100.30;;;19.87;;
45548;SDS011;31270;48.328;10.096;2023-04-21T03:27:58;125.67;;;19.90;;
45548;SDS011;31270;48.328;10.096;2023-04-21T03:30:24;103.63;;;19.27;;
45548;SDS011;31270;48.328;10.096;2023-04-21T03:32:51;83.87;;;19.33;;
45548;SDS011;31270;48.328;10.096;2023-04-21T03:35:17;84.73;;;18.90;;
45548;SDS011;31270;48.328;10.096;2023-04-21T03:37:43;132.73;;;19.17;;
45548;SDS011;31270;48.328;10.096;2023-04-21T03:40:10;110.90;;;18.67;;
45548;SDS011;31270;48.328;10.096;2023-04-21T03:42:36;93.43;;;17.70;;
45548;SDS011;31270;48.328;10.096;2023-04-21T03:45:06;83.27;;;18.17;;
45548;SDS011;31270;48.328;10.096;2023-04-21T03:47:33;64.23;;;18.00;;
45548;SDS011;31270;48.328;10.096;2023-04-21T03:49:59;56.50;;;18.00;;
45548;SDS011;31270;48.328;10.096;2023-04-21T03:52:27;57.37;;;18.50;;
45548;SDS011;31270;48.328;10.096;2023-04-21T03:54:53;73.70;;;19.10;;
45548;SDS011;31270;48.328;10.096;2023-04-21T03:57:18;75.30;;;18.57;;
45548;SDS011;31270;48.328;10.096;2023-04-21T03:59:44;88.53;;;18.53;;
45548;SDS011;31270;48.328;10.096;2023-04-21T04:02:10;70.30;;;18.60;;
45548;SDS011;31270;48.328;10.096;2023-04-21T04:04:36;57.50;;;18.27;;
45548;SDS011;31270;48.328;10.096;2023-04-21T04:07:01;68.33;;;19.07;;
45548;SDS011;31270;48.328;10.096;2023-04-21T04:09:27;83.97;;;18.80;;
45548;SDS011;31270;48.328;10.096;2023-04-21T04:11:53;111.77;;;19.70;;
45548;SDS011;31270;48.328;10.096;2023-04-21T04:14:19;155.23;;;19.50;;
45548;SDS011;31270;48.328;10.096;2023-04-21T04:16:44;233.23;;;21.13;;
45548;SDS011;31270;48.328;10.096;2023-04-21T04:19:10;188.63;;;18.63;;
45548;SDS011;31270;48.328;10.096;2023-04-21T04:21:36;145.40;;;18.70;;
45548;SDS011;31270;48.328;10.096;2023-04-21T04:24:02;180.33;;;18.97;;
45548;SDS011;31270;48.328;10.096;2023-04-21T04:26:29;199.83;;;18.73;;
45548;SDS011;31270;48.328;10.096;2023-04-21T04:28:58;226.33;;;19.27;;
45548;SDS011;31270;48.328;10.096;2023-04-21T04:31:26;281.30;;;20.23;;
45548;SDS011;31270;48.328;10.096;2023-04-21T04:33:55;162.17;;;19.40;;
45548;SDS011;31270;48.328;10.096;2023-04-21T04:36:22;269.27;;;21.43;;
45548;SDS011;31270;48.328;10.096;2023-04-21T04:38:48;241.07;;;20.43;;
45548;SDS011;31270;48.328;10.096;2023-04-21T04:41:14;87.87;;;17.87;;
45548;SDS011;31270;48.328;10.096;2023-04-21T04:43:40;186.70;;;18.47;;
45548;SDS011;31270;48.328;10.096;2023-04-21T04:46:07;68.73;;;18.27;;
45548;SDS011;31270;48.328;10.096;2023-04-21T04:48:33;93.07;;;17.63;;
45548;SDS011;31270;48.328;10.096;2023-04-21T04:50:59;71.43;;;17.60;;
45548;SDS011;31270;48.328;10.096;2023-04-21T04:53:26;62.57;;;17.80;;
45548;SDS011;31270;48.328;10.096;2023-04-21T04:55:53;104.37;;;19.37;;
45548;SDS011;31270;48.328;10.096;2023-04-21T04:58:18;60.47;;;17.60;;
45548;SDS011;31270;48.328;10.096;2023-04-21T05:00:44;50.47;;;17.77;;
45548;SDS011;31270;48.328;10.096;2023-04-21T05:03:10;48.67;;;17.97;;
45548;SDS011;31270;48.328;10.096;2023-04-21T05:05:36;52.13;;;18.50;;
45548;SDS011;31270;48.328;10.096;2023-04-21T05:08:02;61.17;;;18.27;;
45548;SDS011;31270;48.328;10.096;2023-04-21T05:10:27;56.47;;;18.00;;
45548;SDS011;31270;48.328;10.096;2023-04-21T05:12:53;63.97;;;18.23;;
45548;SDS011;31270;48.328;10.096;2023-04-21T05:15:18;44.60;;;18.17;;
45548;SDS011;31270;48.328;10.096;2023-04-21T05:17:44;39.67;;;18.40;;
45548;SDS011;31270;48.328;10.096;2023-04-21T05:20:10;58.43;;;17.93;;
45548;SDS011;31270;48.328;10.096;2023-04-21T05:22:37;36.30;;;16.83;;
45548;SDS011;31270;48.328;10.096;2023-04-21T05:25:03;36.60;;;18.60;;
45548;SDS011;31270;48.328;10.096;2023-04-21T05:27:29;42.03;;;18.50;;
45548;SDS011;31270;48.328;10.096;2023-04-21T05:29:55;39.47;;;17.27;;
45548;SDS011;31270;48.328;10.096;2023-04-21T05:32:20;46.63;;;21.70;;
45548;SDS011;31270;48.328;10.096;2023-04-21T05:34:46;41.00;;;20.43;;
45548;SDS011;31270;48.328;10.096;2023-04-21T05:37:12;38.83;;;20.60;;
45548;SDS011;31270;48.328;10.096;2023-04-21T05:39:37;41.73;;;22.20;;
45548;SDS011;31270;48.328;10.096;2023-04-21T05:42:03;49.23;;;23.03;;
45548;SDS011;31270;48.328;10.096;2023-04-21T05:44:29;42.40;;;21.63;;
45548;SDS011;31270;48.328;10.096;2023-04-21T05:46:54;44.20;;;23.67;;
45548;SDS011;31270;48.328;10.096;2023-04-21T05:49:20;39.83;;;21.37;;
45548;SDS011;31270;48.328;10.096;2023-04-21T05:51:46;36.97;;;19.97;;
45548;SDS011;31270;48.328;10.096;2023-04-21T05:54:11;35.37;;;21.13;;
45548;SDS011;31270;48.328;10.096;2023-04-21T05:56:37;37.47;;;20.37;;
45548;SDS011;31270;48.328;10.096;2023-04-21T05:59:03;39.93;;;21.87;;
45548;SDS011;31270;48.328;10.096;2023-04-21T06:01:31;43.70;;;22.70;;
45548;SDS011;31270;48.328;10.096;2023-04-21T06:03:56;44.00;;;22.47;;
45548;SDS011;31270;48.328;10.096;2023-04-21T06:06:22;43.40;;;23.27;;
45548;SDS011;31270;48.328;10.096;2023-04-21T06:08:50;43.33;;;24.30;;
45548;SDS011;31270;48.328;10.096;2023-04-21T06:11:15;46.23;;;24.20;;
45548;SDS011;31270;48.328;10.096;2023-04-21T06:13:41;42.23;;;22.30;;
45548;SDS011;31270;48.328;10.096;2023-04-21T06:16:07;71.07;;;22.77;;
45548;SDS011;31270;48.328;10.096;2023-04-21T06:18:33;59.27;;;24.47;;
45548;SDS011;31270;48.328;10.096;2023-04-21T06:20:59;73.70;;;25.93;;
45548;SDS011;31270;48.328;10.096;2023-04-21T06:23:24;114.20;;;22.30;;
45548;SDS011;31270;48.328;10.096;2023-04-21T06:26:00;159.23;;;21.83;;
45548;SDS011;31270;48.328;10.096;2023-04-21T06:28:29;224.27;;;22.37;;
45548;SDS011;31270;48.328;10.096;2023-04-21T06:30:58;135.93;;;21.40;;
45548;SDS011;31270;48.328;10.096;2023-04-21T06:33:25;95.00;;;20.40;;
45548;SDS011;31270;48.328;10.096;2023-04-21T06:35:51;168.20;;;23.20;;
45548;SDS011;31270;48.328;10.096;2023-04-21T06:38:17;149.97;;;21.27;;
45548;SDS011;31270;48.328;10.096;2023-04-21T06:40:43;208.17;;;22.80;;
45548;SDS011;31270;48.328;10.096;2023-04-21T06:43:08;104.57;;;21.37;;
45548;SDS011;31270;48.328;10.096;2023-04-21T06:45:34;47.83;;;21.30;;
45548;SDS011;31270;48.328;10.096;2023-04-21T06:48:00;71.87;;;23.43;;
45548;SDS011;31270;48.328;10.096;2023-04-21T06:50:25;48.70;;;23.47;;
45548;SDS011;31270;48.328;10.096;2023-04-21T06:52:51;52.30;;;23.47;;
45548;SDS011;31270;48.328;10.096;2023-04-21T06:55:17;50.47;;;23.23;;
45548;SDS011;31270;48.328;10.096;2023-04-21T06:57:42;45.07;;;22.97;;
45548;SDS011;31270;48.328;10.096;2023-04-21T07:00:08;50.60;;;24.13;;
45548;SDS011;31270;48.328;10.096;2023-04-21T07:02:35;47.47;;;23.27;;
45548;SDS011;31270;48.328;10.096;2023-04-21T07:05:01;51.53;;;23.27;;
45548;SDS011;31270;48.328;10.096;2023-04-21T07:07:27;44.33;;;23.47;;
45548;SDS011;31270;48.328;10.096;2023-04-21T07:09:52;44.43;;;23.10;;
45548;SDS011;31270;48.328;10.096;2023-04-21T07:12:18;46.13;;;23.57;;
45548;SDS011;31270;48.328;10.096;2023-04-21T07:14:44;49.43;;;24.77;;
45548;SDS011;31270;48.328;10.096;2023-04-21T07:17:10;45.50;;;23.73;;
45548;SDS011;31270;48.328;10.096;2023-04-21T07:19:36;39.40;;;21.83;;
45548;SDS011;31270;48.328;10.096;2023-04-21T07:22:02;38.70;;;20.97;;
45548;SDS011;31270;48.328;10.096;2023-04-21T07:24:28;44.90;;;23.43;;
45548;SDS011;31270;48.328;10.096;2023-04-21T07:26:54;42.53;;;22.90;;
45548;SDS011;31270;48.328;10.096;2023-04-21T07:29:19;40.47;;;21.60;;
45548;SDS011;31270;48.328;10.096;2023-04-21T07:31:45;40.90;;;22.37;;
45548;SDS011;31270;48.328;10.096;2023-04-21T07:34:12;43.43;;;23.13;;
45548;SDS011;31270;48.328;10.096;2023-04-21T07:36:38;39.27;;;21.67;;
45548;SDS011;31270;48.328;10.096;2023-04-21T07:39:04;42.07;;;22.53;;
45548;SDS011;31270;48.328;10.096;2023-04-21T07:41:30;46.63;;;23.37;;
45548;SDS011;31270;48.328;10.096;2023-04-21T07:43:56;43.30;;;22.87;;
45548;SDS011;31270;48.328;10.096;2023-04-21T07:46:21;44.33;;;22.90;;
45548;SDS011;31270;48.328;10.096;2023-04-21T07:48:49;44.70;;;23.53;;
45548;SDS011;31270;48.328;10.096;2023-04-21T07:51:15;43.10;;;22.70;;
45548;SDS011;31270;48.328;10.096;2023-04-21T07:53:42;44.13;;;24.13;;
45548;SDS011;31270;48.328;10.096;2023-04-21T07:56:08;43.57;;;22.97;;
45548;SDS011;31270;48.328;10.096;2023-04-21T07:58:33;40.67;;;22.80;;
45548;SDS011;31270;48.328;10.096;2023-04-21T08:00:59;42.40;;;21.90;;
45548;SDS011;31270;48.328;10.096;2023-04-21T08:03:25;40.80;;;21.60;;
45548;SDS011;31270;48.328;10.096;2023-04-21T08:05:50;40.67;;;21.77;;
45548;SDS011;31270;48.328;10.096;2023-04-21T08:08:16;36.47;;;21.13;;
45548;SDS011;31270;48.328;10.096;2023-04-21T08:10:44;39.23;;;20.90;;
45548;SDS011;31270;48.328;10.096;2023-04-21T08:13:10;34.80;;;19.73;;
45548;SDS011;31270;48.328;10.096;2023-04-21T08:15:36;35.63;;;19.37;;
45548;SDS011;31270;48.328;10.096;2023-04-21T08:18:02;35.47;;;19.40;;
45548;SDS011;31270;48.328;10.096;2023-04-21T08:20:28;36.80;;;19.50;;
45548;SDS011;31270;48.328;10.096;2023-04-21T08:22:54;35.90;;;21.03;;
45548;SDS011;31270;48.328;10.096;2023-04-21T08:25:19;35.27;;;20.23;;
45548;SDS011;31270;48.328;10.096;2023-04-21T08:27:45;34.07;;;19.27;;
45548;SDS011;31270;48.328;10.096;2023-04-21T08:30:11;36.40;;;20.37;;
45548;SDS011;31270;48.328;10.096;2023-04-21T08:32:37;36.17;;;19.83;;
45548;SDS011;31270;48.328;10.096;2023-04-21T08:35:03;39.93;;;21.37;;
45548;SDS011;31270;48.328;10.096;2023-04-21T08:37:28;38.00;;;21.53;;
45548;SDS011;31270;48.328;10.096;2023-04-21T08:39:54;36.63;;;20.70;;
45548;SDS011;31270;48.328;10.096;2023-04-21T08:42:20;42.43;;;22.27;;
45548;SDS011;31270;48.328;10.096;2023-04-21T08:44:46;35.47;;;19.90;;
45548;SDS011;31270;48.328;10.096;2023-04-21T08:47:12;34.77;;;20.50;;
45548;SDS011;31270;48.328;10.096;2023-04-21T08:49:39;36.00;;;20.77;;
45548;SDS011;31270;48.328;10.096;2023-04-21T08:52:06;35.77;;;20.57;;
45548;SDS011;31270;48.328;10.096;2023-04-21T08:54:33;30.47;;;19.47;;
45548;SDS011;31270;48.328;10.096;2023-04-21T08:57:00;32.63;;;18.17;;
45548;SDS011;31270;48.328;10.096;2023-04-21T08:59:27;32.73;;;19.70;;
45548;SDS011;31270;48.328;10.096;2023-04-21T09:04:47;30.47;;;19.40;;
45548;SDS011;31270;48.328;10.096;2023-04-21T09:07:52;31.97;;;20.17;;
45548;SDS011;31270;48.328;10.096;2023-04-21T09:10:11;27.20;;;18.47;;
45548;SDS011;31270;48.328;10.096;2023-04-21T09:12:37;30.13;;;18.70;;
45548;SDS011;31270;48.328;10.096;2023-04-21T09:15:05;26.43;;;18.10;;
45548;SDS011;31270;48.328;10.096;2023-04-21T09:17:34;28.20;;;18.00;;
45548;SDS011;31270;48.328;10.096;2023-04-21T09:20:18;27.93;;;18.10;;
45548;SDS011;31270;48.328;10.096;2023-04-21T09:22:47;26.93;;;18.43;;
45548;SDS011;31270;48.328;10.096;2023-04-21T09:25:20;31.03;;;19.17;;
45548;SDS011;31270;48.328;10.096;2023-04-21T09:27:46;24.63;;;16.93;;
45548;SDS011;31270;48.328;10.096;2023-04-21T09:30:12;29.43;;;18.53;;
45548;SDS011;31270;48.328;10.096;2023-04-21T09:32:42;29.00;;;18.43;;
45548;SDS011;31270;48.328;10.096;2023-04-21T09:35:08;25.50;;;16.77;;
45548;SDS011;31270;48.328;10.096;2023-04-21T09:37:35;24.27;;;17.13;;
45548;SDS011;31270;48.328;10.096;2023-04-21T09:40:02;25.67;;;16.87;;
45548;SDS011;31270;48.328;10.096;2023-04-21T09:42:28;24.13;;;16.80;;
45548;SDS011;31270;48.328;10.096;2023-04-21T09:44:55;26.07;;;16.73;;
45548;SDS011;31270;48.328;10.096;2023-04-21T09:47:20;24.77;;;15.63;;
45548;SDS011;31270;48.328;10.096;2023-04-21T09:49:49;23.40;;;16.60;;
45548;SDS011;31270;48.328;10.096;2023-04-21T09:52:16;21.93;;;15.87;;
45548;SDS011;31270;48.328;10.096;2023-04-21T09:54:49;23.83;;;16.43;;
45548;SDS011;31270;48.328;10.096;2023-04-21T09:57:23;25.37;;;16.63;;
45548;SDS011;31270;48.328;10.096;2023-04-21T09:59:55;23.07;;;15.97;;
45548;SDS011;31270;48.328;10.096;2023-04-21T10:02:30;21.87;;;15.43;;
45548;SDS011;31270;48.328;10.096;2023-04-21T10:04:58;19.63;;;14.97;;
45548;SDS011;31270;48.328;10.096;2023-04-21T10:07:24;23.17;;;16.50;;
45548;SDS011;31270;48.328;10.096;2023-04-21T10:09:50;19.40;;;14.57;;
45548;SDS011;31270;48.328;10.096;2023-04-21T10:12:18;20.10;;;15.00;;
45548;SDS011;31270;48.328;10.096;2023-04-21T10:14:45;18.70;;;14.37;;
45548;SDS011;31270;48.328;10.096;2023-04-21T10:17:15;20.30;;;14.40;;
45548;SDS011;31270;48.328;10.096;2023-04-21T10:19:47;18.07;;;13.57;;
45548;SDS011;31270;48.328;10.096;2023-04-21T10:22:18;20.03;;;14.10;;
45548;SDS011;31270;48.328;10.096;2023-04-21T10:24:53;20.83;;;14.67;;
45548;SDS011;31270;48.328;10.096;2023-04-21T10:27:34;17.57;;;13.47;;
45548;SDS011;31270;48.328;10.096;2023-04-21T10:30:17;19.03;;;13.57;;
45548;SDS011;31270;48.328;10.096;2023-04-21T10:32:47;18.57;;;12.87;;
45548;SDS011;31270;48.328;10.096;2023-04-21T10:35:36;15.77;;;11.90;;
45548;SDS011;31270;48.328;10.096;2023-04-21T10:38:41;17.80;;;12.73;;
45548;SDS011;31270;48.328;10.096;2023-04-21T10:44:00;14.45;;;10.80;;
45548;SDS011;31270;48.328;10.096;2023-04-21T10:46:38;16.38;;;12.07;;
45548;SDS011;31270;48.328;10.096;2023-04-21T10:49:11;13.93;;;11.13;;
45548;SDS011;31270;48.328;10.096;2023-04-21T10:54:28;14.75;;;11.65;;
45548;SDS011;31270;48.328;10.096;2023-04-21T10:57:01;15.25;;;12.20;;
45548;SDS011;31270;48.328;10.096;2023-04-21T10:59:32;17.17;;;13.00;;
45548;SDS011;31270;48.328;10.096;2023-04-21T11:02:01;16.80;;;12.25;;
45548;SDS011;31270;48.328;10.096;2023-04-21T11:04:27;14.70;;;12.05;;
45548;SDS011;31270;48.328;10.096;2023-04-21T11:07:10;17.00;;;12.57;;
45548;SDS011;31270;48.328;10.096;2023-04-21T11:09:38;15.13;;;12.00;;
45548;SDS011;31270;48.328;10.096;2023-04-21T11:12:05;16.95;;;12.25;;
45548;SDS011;31270;48.328;10.096;2023-04-21T11:14:33;13.23;;;11.40;;
45548;SDS011;31270;48.328;10.096;2023-04-21T11:17:01;16.10;;;12.18;;
45548;SDS011;31270;48.328;10.096;2023-04-21T11:19:27;15.30;;;11.25;;
45548;SDS011;31270;48.328;10.096;2023-04-21T11:21:56;12.85;;;10.57;;
45548;SDS011;31270;48.328;10.096;2023-04-21T11:24:22;16.33;;;11.43;;
45548;SDS011;31270;48.328;10.096;2023-04-21T11:26:48;13.07;;;10.07;;
45548;SDS011;31270;48.328;10.096;2023-04-21T11:29:14;14.85;;;10.82;;
45548;SDS011;31270;48.328;10.096;2023-04-21T11:31:40;12.50;;;10.07;;
45548;SDS011;31270;48.328;10.096;2023-04-21T11:34:08;14.43;;;10.48;;
45548;SDS011;31270;48.328;10.096;2023-04-21T11:36:35;12.98;;;10.07;;
45548;SDS011;31270;48.328;10.096;2023-04-21T11:39:08;11.75;;;10.20;;
45548;SDS011;31270;48.328;10.096;2023-04-21T11:41:35;13.13;;;10.68;;
45548;SDS011;31270;48.328;10.096;2023-04-21T11:44:04;10.30;;;8.85;;
45548;SDS011;31270;48.328;10.096;2023-04-21T11:46:30;11.93;;;10.02;;
45548;SDS011;31270;48.328;10.096;2023-04-21T11:49:04;11.07;;;8.95;;
45548;SDS011;31270;48.328;10.096;2023-04-21T11:51:35;10.40;;;8.25;;
45548;SDS011;31270;48.328;10.096;2023-04-21T11:54:03;10.70;;;8.70;;
45548;SDS011;31270;48.328;10.096;2023-04-21T11:56:33;13.85;;;9.90;;
45548;SDS011;31270;48.328;10.096;2023-04-21T11:59:09;12.10;;;9.63;;
45548;SDS011;31270;48.328;10.096;2023-04-21T12:01:46;13.52;;;9.38;;
45548;SDS011;31270;48.328;10.096;2023-04-21T12:04:17;10.05;;;8.93;;
45548;SDS011;31270;48.328;10.096;2023-04-21T12:06:44;10.68;;;8.35;;
45548;SDS011;31270;48.328;10.096;2023-04-21T12:09:17;10.05;;;8.70;;
45548;SDS011;31270;48.328;10.096;2023-04-21T12:11:51;8.93;;;7.88;;
45548;SDS011;31270;48.328;10.096;2023-04-21T12:14:18;10.38;;;8.18;;
45548;SDS011;31270;48.328;10.096;2023-04-21T12:16:52;9.00;;;7.68;;
45548;SDS011;31270;48.328;10.096;2023-04-21T12:19:23;9.25;;;7.90;;
45548;SDS011;31270;48.328;10.096;2023-04-21T12:21:58;9.63;;;8.43;;
45548;SDS011;31270;48.328;10.096;2023-04-21T12:24:24;9.48;;;8.35;;
45548;SDS011;31270;48.328;10.096;2023-04-21T12:26:50;8.57;;;7.70;;
45548;SDS011;31270;48.328;10.096;2023-04-21T12:29:15;9.63;;;7.78;;
45548;SDS011;31270;48.328;10.096;2023-04-21T12:31:41;11.10;;;8.05;;
45548;SDS011;31270;48.328;10.096;2023-04-21T12:34:07;9.27;;;8.18;;
45548;SDS011;31270;48.328;10.096;2023-04-21T12:36:33;8.82;;;7.32;;
45548;SDS011;31270;48.328;10.096;2023-04-21T12:38:59;9.23;;;7.82;;
45548;SDS011;31270;48.328;10.096;2023-04-21T12:41:25;10.20;;;8.15;;
45548;SDS011;31270;48.328;10.096;2023-04-21T12:43:50;9.60;;;7.93;;
45548;SDS011;31270;48.328;10.096;2023-04-21T12:46:16;8.75;;;7.70;;
45548;SDS011;31270;48.328;10.096;2023-04-21T12:48:41;11.18;;;7.28;;
45548;SDS011;31270;48.328;10.096;2023-04-21T12:51:08;10.77;;;7.63;;
45548;SDS011;31270;48.328;10.096;2023-04-21T12:53:33;9.90;;;7.57;;
45548;SDS011;31270;48.328;10.096;2023-04-21T12:56:17;10.05;;;8.20;;
45548;SDS011;31270;48.328;10.096;2023-04-21T12:58:43;21.60;;;11.10;;
45548;SDS011;31270;48.328;10.096;2023-04-21T13:01:09;8.23;;;7.05;;
45548;SDS011;31270;48.328;10.096;2023-04-21T13:03:38;8.95;;;7.95;;
45548;SDS011;31270;48.328;10.096;2023-04-21T13:06:04;9.00;;;7.82;;
45548;SDS011;31270;48.328;10.096;2023-04-21T13:08:30;9.30;;;7.70;;
45548;SDS011;31270;48.328;10.096;2023-04-21T13:10:55;8.02;;;7.22;;
45548;SDS011;31270;48.328;10.096;2023-04-21T13:13:21;10.00;;;7.50;;
45548;SDS011;31270;48.328;10.096;2023-04-21T13:15:47;8.52;;;7.15;;
45548;SDS011;31270;48.328;10.096;2023-04-21T13:18:13;8.82;;;7.57;;
45548;SDS011;31270;48.328;10.096;2023-04-21T13:20:38;6.75;;;5.90;;
45548;SDS011;31270;48.328;10.096;2023-04-21T13:23:04;7.20;;;6.40;;
45548;SDS011;31270;48.328;10.096;2023-04-21T13:25:30;7.40;;;5.97;;
45548;SDS011;31270;48.328;10.096;2023-04-21T13:27:56;6.85;;;6.15;;
45548;SDS011;31270;48.328;10.096;2023-04-21T13:30:22;9.05;;;6.82;;
45548;SDS011;31270;48.328;10.096;2023-04-21T13:32:48;9.27;;;6.85;;
45548;SDS011;31270;48.328;10.096;2023-04-21T13:35:13;8.77;;;7.88;;
45548;SDS011;31270;48.328;10.096;2023-04-21T13:37:39;11.38;;;8.80;;
45548;SDS011;31270;48.328;10.096;2023-04-21T13:40:06;8.38;;;6.63;;
45548;SDS011;31270;48.328;10.096;2023-04-21T13:42:33;8.07;;;6.93;;
45548;SDS011;31270;48.328;10.096;2023-04-21T13:45:03;9.80;;;8.32;;
45548;SDS011;31270;48.328;10.096;2023-04-21T13:47:30;9.23;;;7.03;;
45548;SDS011;31270;48.328;10.096;2023-04-21T13:49:56;8.63;;;6.35;;
45548;SDS011;31270;48.328;10.096;2023-04-21T13:52:22;7.03;;;6.32;;
45548;SDS011;31270;48.328;10.096;2023-04-21T13:54:49;7.93;;;6.90;;
45548;SDS011;31270;48.328;10.096;2023-04-21T13:57:16;6.85;;;6.15;;
45548;SDS011;31270;48.328;10.096;2023-04-21T13:59:41;7.00;;;6.10;;
45548;SDS011;31270;48.328;10.096;2023-04-21T14:02:07;8.95;;;6.63;;
45548;SDS011;31270;48.328;10.096;2023-04-21T14:04:33;7.95;;;5.65;;
45548;SDS011;31270;48.328;10.096;2023-04-21T14:06:58;6.30;;;5.63;;
45548;SDS011;31270;48.328;10.096;2023-04-21T14:09:24;6.80;;;6.10;;
45548;SDS011;31270;48.328;10.096;2023-04-21T14:11:50;6.18;;;5.57;;
45548;SDS011;31270;48.328;10.096;2023-04-21T14:14:15;7.82;;;7.05;;
45548;SDS011;31270;48.328;10.096;2023-04-21T14:16:41;8.52;;;6.00;;
45548;SDS011;31270;48.328;10.096;2023-04-21T14:19:07;7.45;;;6.50;;
45548;SDS011;31270;48.328;10.096;2023-04-21T14:21:34;8.13;;;7.03;;